Accueil
METAR-TAF:

METAR-TAF

Aéroports :

Benson, Angleterre

latitude: 51-37N, longitude: 001-05W, altitude: 63 m

Observation

Le bulletin a été fait il y a 30 minutes, à 15:50 UTC
Vent 9 kt de sud/sud-ouest
Température 4°C
Humidité 75%
Pression 1019 hPa
Visibilité 10 km ou plus
Quelques nuages à une hauteur de 2100 ft
Nuages fragmentés à une hauteur de 2900 ft
Nuages fragmentés à une hauteur de 22000 ft

METAR: EGUB 211550Z 20009KT 9999 FEW021 BKN029 BKN220 04/00 Q1019 BLU NOSIG

Heure: 16:20 (16:20 UTC)

Prévision

Le bulletin a été fait il y a 2 heures et 30 minutes, à 13:50 UTC
Prévision valable du 21 à 15 UTC au 21 à 21 UTC
Vent 8 kt de sud
Visibilité 10 km ou plus
Nuages fragmentés à une hauteur de 3000 ft
Probabilité 40% :
Temporairement
du 21 à 15 UTC au 21 à 21 UTC
Nuages épars à une hauteur de 2000 ft

TAF: EGUB 211350Z 2115/2121 19008KT 9999 BKN030 PROB40 TEMPO 2115/2121 SCT020

Observations et prévisions météorologiques de plus de 4000 aéroports (messages METAR et TAF).

Les stations disponibles sont représentées par des disques jaunes et rouges sur la carte.

Passer la souris dessus pour voir le nom de la station.

Cliquer dessus pour voir les observations et prévisions météorologiques.

Pour changer de carte: cliquez sur les boutons verts avec une croix noire pour zoomer, sur le bouton vert avec un tiret pour effectuer un zoom arrière, ou sur les flèches vertes pour les cartes adjacentes.


METAR-TAF: